sensor_id;sensor_type;location;lat;lon;timestamp;P1;durP1;ratioP1;P2;durP2;ratioP2
44102;SDS011;29769;42.178;24.742;2022-11-23T00:02:17;18.88;;;6.63;;
44102;SDS011;29769;42.178;24.742;2022-11-23T00:05:02;9.68;;;4.50;;
44102;SDS011;29769;42.178;24.742;2022-11-23T00:07:46;8.02;;;3.58;;
44102;SDS011;29769;42.178;24.742;2022-11-23T00:13:16;9.82;;;4.35;;
44102;SDS011;29769;42.178;24.742;2022-11-23T00:16:21;17.88;;;6.85;;
44102;SDS011;29769;42.178;24.742;2022-11-23T00:19:10;22.23;;;7.90;;
44102;SDS011;29769;42.178;24.742;2022-11-23T00:24:39;13.80;;;7.72;;
44102;SDS011;29769;42.178;24.742;2022-11-23T00:27:24;24.00;;;9.18;;
44102;SDS011;29769;42.178;24.742;2022-11-23T00:30:10;19.20;;;11.70;;
44102;SDS011;29769;42.178;24.742;2022-11-23T00:35:40;20.02;;;11.32;;
44102;SDS011;29769;42.178;24.742;2022-11-23T00:38:25;22.50;;;11.48;;
44102;SDS011;29769;42.178;24.742;2022-11-23T00:41:11;21.15;;;11.30;;
44102;SDS011;29769;42.178;24.742;2022-11-23T00:43:58;24.65;;;12.18;;
44102;SDS011;29769;42.178;24.742;2022-11-23T00:46:43;22.52;;;12.68;;
44102;SDS011;29769;42.178;24.742;2022-11-23T00:49:28;23.15;;;12.98;;
44102;SDS011;29769;42.178;24.742;2022-11-23T00:52:13;24.23;;;13.63;;
44102;SDS011;29769;42.178;24.742;2022-11-23T00:54:57;24.33;;;14.05;;
44102;SDS011;29769;42.178;24.742;2022-11-23T00:57:42;25.95;;;13.40;;
44102;SDS011;29769;42.178;24.742;2022-11-23T01:00:27;20.75;;;13.30;;
44102;SDS011;29769;42.178;24.742;2022-11-23T01:03:15;22.88;;;13.93;;
44102;SDS011;29769;42.178;24.742;2022-11-23T01:06:01;25.83;;;13.70;;
44102;SDS011;29769;42.178;24.742;2022-11-23T01:08:57;22.15;;;13.40;;
44102;SDS011;29769;42.178;24.742;2022-11-23T01:11:48;22.27;;;13.88;;
44102;SDS011;29769;42.178;24.742;2022-11-23T01:14:33;23.77;;;13.63;;
44102;SDS011;29769;42.178;24.742;2022-11-23T01:17:22;18.58;;;11.15;;
44102;SDS011;29769;42.178;24.742;2022-11-23T01:20:07;9.40;;;6.13;;
44102;SDS011;29769;42.178;24.742;2022-11-23T01:22:52;7.30;;;4.45;;
44102;SDS011;29769;42.178;24.742;2022-11-23T01:28:22;9.52;;;5.55;;
44102;SDS011;29769;42.178;24.742;2022-11-23T01:31:11;13.38;;;5.15;;
44102;SDS011;29769;42.178;24.742;2022-11-23T01:34:09;9.50;;;4.65;;
44102;SDS011;29769;42.178;24.742;2022-11-23T01:36:55;6.57;;;4.60;;
44102;SDS011;29769;42.178;24.742;2022-11-23T01:39:40;8.27;;;4.90;;
44102;SDS011;29769;42.178;24.742;2022-11-23T01:48:29;25.30;;;13.57;;
44102;SDS011;29769;42.178;24.742;2022-11-23T01:51:26;21.88;;;13.15;;
44102;SDS011;29769;42.178;24.742;2022-11-23T01:54:20;23.55;;;13.70;;
44102;SDS011;29769;42.178;24.742;2022-11-23T01:57:24;26.58;;;12.65;;
44102;SDS011;29769;42.178;24.742;2022-11-23T02:00:14;12.63;;;9.68;;
44102;SDS011;29769;42.178;24.742;2022-11-23T02:02:59;15.60;;;9.18;;
44102;SDS011;29769;42.178;24.742;2022-11-23T02:05:47;14.45;;;9.48;;
44102;SDS011;29769;42.178;24.742;2022-11-23T02:08:37;13.27;;;8.27;;
44102;SDS011;29769;42.178;24.742;2022-11-23T02:11:22;12.95;;;7.82;;
44102;SDS011;29769;42.178;24.742;2022-11-23T02:14:06;11.45;;;7.00;;
44102;SDS011;29769;42.178;24.742;2022-11-23T02:16:52;10.90;;;6.68;;
44102;SDS011;29769;42.178;24.742;2022-11-23T02:22:34;16.13;;;7.47;;
44102;SDS011;29769;42.178;24.742;2022-11-23T02:25:37;12.20;;;7.65;;
44102;SDS011;29769;42.178;24.742;2022-11-23T02:28:36;12.80;;;8.80;;
44102;SDS011;29769;42.178;24.742;2022-11-23T02:31:26;14.18;;;9.38;;
44102;SDS011;29769;42.178;24.742;2022-11-23T02:34:12;11.25;;;8.65;;
44102;SDS011;29769;42.178;24.742;2022-11-23T02:36:57;16.95;;;11.38;;
44102;SDS011;29769;42.178;24.742;2022-11-23T02:39:47;17.75;;;11.35;;
44102;SDS011;29769;42.178;24.742;2022-11-23T02:42:34;27.27;;;14.43;;
44102;SDS011;29769;42.178;24.742;2022-11-23T02:48:19;28.17;;;16.92;;
44102;SDS011;29769;42.178;24.742;2022-11-23T02:51:03;25.30;;;16.90;;
44102;SDS011;29769;42.178;24.742;2022-11-23T02:53:49;23.95;;;16.13;;
44102;SDS011;29769;42.178;24.742;2022-11-23T02:56:35;22.85;;;15.63;;
44102;SDS011;29769;42.178;24.742;2022-11-23T02:59:21;28.50;;;16.42;;
44102;SDS011;29769;42.178;24.742;2022-11-23T03:02:08;25.92;;;16.23;;
44102;SDS011;29769;42.178;24.742;2022-11-23T03:07:38;24.15;;;15.45;;
44102;SDS011;29769;42.178;24.742;2022-11-23T03:10:23;23.77;;;14.38;;
44102;SDS011;29769;42.178;24.742;2022-11-23T03:13:11;24.20;;;14.38;;
44102;SDS011;29769;42.178;24.742;2022-11-23T03:15:57;28.50;;;15.85;;
44102;SDS011;29769;42.178;24.742;2022-11-23T03:18:44;26.65;;;15.30;;
44102;SDS011;29769;42.178;24.742;2022-11-23T03:21:29;23.23;;;14.75;;
44102;SDS011;29769;42.178;24.742;2022-11-23T03:24:13;27.20;;;14.35;;
44102;SDS011;29769;42.178;24.742;2022-11-23T03:27:00;19.08;;;14.25;;
44102;SDS011;29769;42.178;24.742;2022-11-23T03:29:46;24.95;;;14.82;;
44102;SDS011;29769;42.178;24.742;2022-11-23T03:32:35;21.73;;;14.07;;
44102;SDS011;29769;42.178;24.742;2022-11-23T03:38:25;19.48;;;13.20;;
44102;SDS011;29769;42.178;24.742;2022-11-23T03:41:11;18.63;;;12.35;;
44102;SDS011;29769;42.178;24.742;2022-11-23T03:44:06;22.23;;;12.77;;
44102;SDS011;29769;42.178;24.742;2022-11-23T03:46:51;22.15;;;12.00;;
44102;SDS011;29769;42.178;24.742;2022-11-23T03:49:36;16.27;;;11.38;;
44102;SDS011;29769;42.178;24.742;2022-11-23T03:52:21;20.52;;;12.38;;
44102;SDS011;29769;42.178;24.742;2022-11-23T03:55:06;20.55;;;11.85;;
44102;SDS011;29769;42.178;24.742;2022-11-23T03:57:52;25.17;;;11.82;;
44102;SDS011;29769;42.178;24.742;2022-11-23T04:00:39;19.58;;;11.57;;
44102;SDS011;29769;42.178;24.742;2022-11-23T04:03:24;19.25;;;11.02;;
44102;SDS011;29769;42.178;24.742;2022-11-23T04:06:25;19.55;;;11.57;;
44102;SDS011;29769;42.178;24.742;2022-11-23T04:09:21;16.15;;;11.18;;
44102;SDS011;29769;42.178;24.742;2022-11-23T04:12:21;20.45;;;12.63;;
44102;SDS011;29769;42.178;24.742;2022-11-23T04:17:53;27.55;;;12.70;;
44102;SDS011;29769;42.178;24.742;2022-11-23T04:20:38;23.63;;;11.80;;
44102;SDS011;29769;42.178;24.742;2022-11-23T04:23:23;20.88;;;12.20;;
44102;SDS011;29769;42.178;24.742;2022-11-23T04:26:08;16.42;;;11.15;;
44102;SDS011;29769;42.178;24.742;2022-11-23T04:28:57;15.50;;;11.05;;
44102;SDS011;29769;42.178;24.742;2022-11-23T04:31:42;16.65;;;10.35;;
44102;SDS011;29769;42.178;24.742;2022-11-23T04:34:30;15.32;;;10.35;;
44102;SDS011;29769;42.178;24.742;2022-11-23T04:37:18;13.60;;;9.85;;
44102;SDS011;29769;42.178;24.742;2022-11-23T04:40:03;18.15;;;11.65;;
44102;SDS011;29769;42.178;24.742;2022-11-23T04:43:09;17.58;;;11.57;;
44102;SDS011;29769;42.178;24.742;2022-11-23T04:45:56;15.88;;;11.48;;
44102;SDS011;29769;42.178;24.742;2022-11-23T04:48:46;17.98;;;10.02;;
44102;SDS011;29769;42.178;24.742;2022-11-23T04:51:33;14.45;;;9.38;;
44102;SDS011;29769;42.178;24.742;2022-11-23T04:54:18;16.63;;;10.27;;
44102;SDS011;29769;42.178;24.742;2022-11-23T04:57:09;18.65;;;9.40;;
44102;SDS011;29769;42.178;24.742;2022-11-23T04:59:56;14.02;;;9.48;;
44102;SDS011;29769;42.178;24.742;2022-11-23T05:02:42;13.50;;;8.65;;
44102;SDS011;29769;42.178;24.742;2022-11-23T05:08:23;11.23;;;8.13;;
44102;SDS011;29769;42.178;24.742;2022-11-23T05:11:16;13.23;;;8.23;;
44102;SDS011;29769;42.178;24.742;2022-11-23T05:14:01;14.60;;;8.77;;
44102;SDS011;29769;42.178;24.742;2022-11-23T05:16:47;11.77;;;8.75;;
44102;SDS011;29769;42.178;24.742;2022-11-23T05:19:33;11.88;;;8.68;;
44102;SDS011;29769;42.178;24.742;2022-11-23T05:22:18;15.68;;;9.23;;
44102;SDS011;29769;42.178;24.742;2022-11-23T05:25:03;12.27;;;9.57;;
44102;SDS011;29769;42.178;24.742;2022-11-23T05:27:51;12.50;;;8.50;;
44102;SDS011;29769;42.178;24.742;2022-11-23T05:30:36;13.57;;;8.63;;
44102;SDS011;29769;42.178;24.742;2022-11-23T05:33:21;12.70;;;8.95;;
44102;SDS011;29769;42.178;24.742;2022-11-23T05:36:06;14.18;;;9.45;;
44102;SDS011;29769;42.178;24.742;2022-11-23T05:38:55;11.23;;;7.53;;
44102;SDS011;29769;42.178;24.742;2022-11-23T05:41:47;10.65;;;7.50;;
44102;SDS011;29769;42.178;24.742;2022-11-23T05:44:46;14.32;;;8.05;;
44102;SDS011;29769;42.178;24.742;2022-11-23T05:47:38;12.77;;;7.95;;
44102;SDS011;29769;42.178;24.742;2022-11-23T05:50:26;12.70;;;8.75;;
44102;SDS011;29769;42.178;24.742;2022-11-23T05:53:31;12.40;;;8.20;;
44102;SDS011;29769;42.178;24.742;2022-11-23T05:56:24;16.92;;;8.20;;
44102;SDS011;29769;42.178;24.742;2022-11-23T06:02:10;15.48;;;8.00;;
44102;SDS011;29769;42.178;24.742;2022-11-23T06:07:50;18.20;;;7.57;;
44102;SDS011;29769;42.178;24.742;2022-11-23T06:10:38;10.43;;;7.38;;
44102;SDS011;29769;42.178;24.742;2022-11-23T06:13:24;14.07;;;7.30;;
44102;SDS011;29769;42.178;24.742;2022-11-23T06:16:09;16.45;;;7.65;;
44102;SDS011;29769;42.178;24.742;2022-11-23T06:19:04;11.80;;;6.70;;
44102;SDS011;29769;42.178;24.742;2022-11-23T06:24:35;18.33;;;7.53;;
44102;SDS011;29769;42.178;24.742;2022-11-23T06:27:39;9.93;;;7.13;;
44102;SDS011;29769;42.178;24.742;2022-11-23T06:30:32;11.52;;;7.07;;
44102;SDS011;29769;42.178;24.742;2022-11-23T06:33:22;19.92;;;8.88;;
44102;SDS011;29769;42.178;24.742;2022-11-23T06:36:10;15.38;;;9.07;;
44102;SDS011;29769;42.178;24.742;2022-11-23T06:39:01;15.95;;;9.55;;
44102;SDS011;29769;42.178;24.742;2022-11-23T06:41:47;11.48;;;8.45;;
44102;SDS011;29769;42.178;24.742;2022-11-23T06:44:32;16.27;;;7.72;;
44102;SDS011;29769;42.178;24.742;2022-11-23T06:50:02;10.32;;;7.82;;
44102;SDS011;29769;42.178;24.742;2022-11-23T06:52:47;15.60;;;8.45;;
44102;SDS011;29769;42.178;24.742;2022-11-23T06:55:39;16.45;;;7.60;;
44102;SDS011;29769;42.178;24.742;2022-11-23T06:58:26;15.13;;;8.07;;
44102;SDS011;29769;42.178;24.742;2022-11-23T07:01:11;16.27;;;8.05;;
44102;SDS011;29769;42.178;24.742;2022-11-23T07:04:10;15.38;;;9.05;;
44102;SDS011;29769;42.178;24.742;2022-11-23T07:07:02;25.65;;;9.68;;
44102;SDS011;29769;42.178;24.742;2022-11-23T07:09:56;28.58;;;10.68;;
44102;SDS011;29769;42.178;24.742;2022-11-23T07:12:46;44.08;;;11.55;;
44102;SDS011;29769;42.178;24.742;2022-11-23T07:15:33;11.98;;;8.35;;
44102;SDS011;29769;42.178;24.742;2022-11-23T07:18:19;14.25;;;9.40;;
44102;SDS011;29769;42.178;24.742;2022-11-23T07:21:09;11.88;;;8.80;;
44102;SDS011;29769;42.178;24.742;2022-11-23T07:23:54;23.48;;;9.63;;
44102;SDS011;29769;42.178;24.742;2022-11-23T07:29:24;18.75;;;9.25;;
44102;SDS011;29769;42.178;24.742;2022-11-23T07:32:09;20.05;;;10.32;;
44102;SDS011;29769;42.178;24.742;2022-11-23T07:37:39;19.77;;;10.73;;
44102;SDS011;29769;42.178;24.742;2022-11-23T07:40:24;15.13;;;9.77;;
44102;SDS011;29769;42.178;24.742;2022-11-23T07:43:09;19.60;;;10.98;;
44102;SDS011;29769;42.178;24.742;2022-11-23T07:45:55;18.77;;;12.15;;
44102;SDS011;29769;42.178;24.742;2022-11-23T07:48:40;22.17;;;11.02;;
44102;SDS011;29769;42.178;24.742;2022-11-23T07:51:25;32.65;;;11.32;;
44102;SDS011;29769;42.178;24.742;2022-11-23T07:54:10;16.05;;;11.40;;
44102;SDS011;29769;42.178;24.742;2022-11-23T07:56:55;21.02;;;11.65;;
44102;SDS011;29769;42.178;24.742;2022-11-23T07:59:40;18.75;;;12.38;;
44102;SDS011;29769;42.178;24.742;2022-11-23T08:02:25;31.13;;;13.07;;
44102;SDS011;29769;42.178;24.742;2022-11-23T08:05:10;25.95;;;13.38;;
44102;SDS011;29769;42.178;24.742;2022-11-23T08:07:58;37.92;;;13.98;;
44102;SDS011;29769;42.178;24.742;2022-11-23T08:10:43;33.67;;;13.88;;
44102;SDS011;29769;42.178;24.742;2022-11-23T08:13:28;44.85;;;13.90;;
44102;SDS011;29769;42.178;24.742;2022-11-23T08:16:13;28.40;;;13.60;;
44102;SDS011;29769;42.178;24.742;2022-11-23T08:18:58;29.60;;;15.05;;
44102;SDS011;29769;42.178;24.742;2022-11-23T08:21:43;33.67;;;14.05;;
44102;SDS011;29769;42.178;24.742;2022-11-23T08:24:28;39.67;;;16.58;;
44102;SDS011;29769;42.178;24.742;2022-11-23T08:27:13;26.45;;;13.57;;
44102;SDS011;29769;42.178;24.742;2022-11-23T08:29:59;32.67;;;13.65;;
44102;SDS011;29769;42.178;24.742;2022-11-23T08:35:28;39.00;;;14.68;;
44102;SDS011;29769;42.178;24.742;2022-11-23T08:38:13;23.23;;;14.02;;
44102;SDS011;29769;42.178;24.742;2022-11-23T08:41:01;31.90;;;13.10;;
44102;SDS011;29769;42.178;24.742;2022-11-23T08:43:49;23.52;;;12.55;;
44102;SDS011;29769;42.178;24.742;2022-11-23T08:46:34;32.15;;;12.98;;
44102;SDS011;29769;42.178;24.742;2022-11-23T08:49:19;21.95;;;13.05;;
44102;SDS011;29769;42.178;24.742;2022-11-23T08:54:49;24.65;;;13.73;;
44102;SDS011;29769;42.178;24.742;2022-11-23T08:57:34;24.60;;;13.13;;
44102;SDS011;29769;42.178;24.742;2022-11-23T09:03:04;21.00;;;13.73;;
44102;SDS011;29769;42.178;24.742;2022-11-23T09:08:34;21.07;;;13.80;;
44102;SDS011;29769;42.178;24.742;2022-11-23T09:11:19;31.05;;;13.57;;
44102;SDS011;29769;42.178;24.742;2022-11-23T09:14:04;18.52;;;12.95;;
44102;SDS011;29769;42.178;24.742;2022-11-23T09:19:34;23.77;;;12.15;;
44102;SDS011;29769;42.178;24.742;2022-11-23T09:22:19;30.30;;;13.27;;
44102;SDS011;29769;42.178;24.742;2022-11-23T09:25:04;24.00;;;11.85;;
44102;SDS011;29769;42.178;24.742;2022-11-23T09:27:55;17.30;;;11.05;;
44102;SDS011;29769;42.178;24.742;2022-11-23T09:30:43;19.25;;;10.32;;
44102;SDS011;29769;42.178;24.742;2022-11-23T09:33:27;19.40;;;9.70;;
44102;SDS011;29769;42.178;24.742;2022-11-23T09:38:57;17.00;;;8.00;;
44102;SDS011;29769;42.178;24.742;2022-11-23T09:50:58;12.88;;;6.82;;
44102;SDS011;29769;42.178;24.742;2022-11-23T09:56:50;38.88;;;9.32;;
44102;SDS011;29769;42.178;24.742;2022-11-23T09:59:40;44.05;;;8.98;;
44102;SDS011;29769;42.178;24.742;2022-11-23T10:02:31;27.05;;;8.30;;
44102;SDS011;29769;42.178;24.742;2022-11-23T10:05:21;11.60;;;7.78;;
44102;SDS011;29769;42.178;24.742;2022-11-23T10:11:19;8.90;;;5.72;;
44102;SDS011;29769;42.178;24.742;2022-11-23T10:14:47;27.75;;;8.73;;
44102;SDS011;29769;42.178;24.742;2022-11-23T10:17:47;11.10;;;7.05;;
44102;SDS011;29769;42.178;24.742;2022-11-23T10:21:03;15.52;;;6.07;;
44102;SDS011;29769;42.178;24.742;2022-11-23T10:24:15;11.15;;;6.55;;
44102;SDS011;29769;42.178;24.742;2022-11-23T10:27:07;50.00;;;11.00;;
44102;SDS011;29769;42.178;24.742;2022-11-23T10:29:58;21.38;;;8.13;;
44102;SDS011;29769;42.178;24.742;2022-11-23T10:32:58;10.50;;;7.00;;
44102;SDS011;29769;42.178;24.742;2022-11-23T10:35:46;18.58;;;8.25;;
44102;SDS011;29769;42.178;24.742;2022-11-23T10:41:16;19.13;;;7.75;;
44102;SDS011;29769;42.178;24.742;2022-11-23T10:46:52;18.52;;;7.68;;
44102;SDS011;29769;42.178;24.742;2022-11-23T10:49:37;13.52;;;7.72;;
44102;SDS011;29769;42.178;24.742;2022-11-23T10:52:24;9.82;;;7.55;;
44102;SDS011;29769;42.178;24.742;2022-11-23T10:55:13;19.33;;;8.23;;
44102;SDS011;29769;42.178;24.742;2022-11-23T10:57:59;18.90;;;8.20;;
44102;SDS011;29769;42.178;24.742;2022-11-23T11:00:44;21.13;;;7.55;;
44102;SDS011;29769;42.178;24.742;2022-11-23T11:06:25;14.27;;;6.53;;
44102;SDS011;29769;42.178;24.742;2022-11-23T11:09:17;28.98;;;7.78;;
44102;SDS011;29769;42.178;24.742;2022-11-23T11:12:04;25.13;;;9.55;;
44102;SDS011;29769;42.178;24.742;2022-11-23T11:17:56;20.30;;;7.47;;
44102;SDS011;29769;42.178;24.742;2022-11-23T11:20:43;20.17;;;8.05;;
44102;SDS011;29769;42.178;24.742;2022-11-23T11:23:29;14.48;;;7.95;;
44102;SDS011;29769;42.178;24.742;2022-11-23T11:26:19;14.68;;;7.70;;
44102;SDS011;29769;42.178;24.742;2022-11-23T11:29:05;37.03;;;13.18;;
44102;SDS011;29769;42.178;24.742;2022-11-23T11:31:55;33.17;;;10.70;;
44102;SDS011;29769;42.178;24.742;2022-11-23T11:34:48;15.27;;;7.28;;
44102;SDS011;29769;42.178;24.742;2022-11-23T11:37:44;16.05;;;7.70;;
44102;SDS011;29769;42.178;24.742;2022-11-23T11:40:36;11.20;;;6.90;;
44102;SDS011;29769;42.178;24.742;2022-11-23T11:43:38;15.90;;;7.72;;
44102;SDS011;29769;42.178;24.742;2022-11-23T11:46:29;10.68;;;6.45;;
44102;SDS011;29769;42.178;24.742;2022-11-23T11:49:29;69.05;;;11.15;;
44102;SDS011;29769;42.178;24.742;2022-11-23T11:52:19;8.55;;;6.70;;
44102;SDS011;29769;42.178;24.742;2022-11-23T11:55:22;10.90;;;6.72;;
44102;SDS011;29769;42.178;24.742;2022-11-23T11:58:13;14.88;;;7.10;;
44102;SDS011;29769;42.178;24.742;2022-11-23T12:01:05;12.82;;;8.15;;
44102;SDS011;29769;42.178;24.742;2022-11-23T12:03:58;18.05;;;6.35;;
44102;SDS011;29769;42.178;24.742;2022-11-23T12:06:51;14.90;;;5.57;;
44102;SDS011;29769;42.178;24.742;2022-11-23T12:09:44;11.52;;;4.90;;
44102;SDS011;29769;42.178;24.742;2022-11-23T12:12:33;9.23;;;5.57;;
44102;SDS011;29769;42.178;24.742;2022-11-23T12:15:20;38.13;;;7.35;;
44102;SDS011;29769;42.178;24.742;2022-11-23T12:37:23;22.30;;;7.38;;
44102;SDS011;29769;42.178;24.742;2022-11-23T12:43:23;24.67;;;7.75;;
44102;SDS011;29769;42.178;24.742;2022-11-23T12:46:25;22.30;;;9.50;;
44102;SDS011;29769;42.178;24.742;2022-11-23T12:49:40;10.00;;;7.72;;
44102;SDS011;29769;42.178;24.742;2022-11-23T12:58:48;29.55;;;8.65;;
44102;SDS011;29769;42.178;24.742;2022-11-23T13:01:37;13.05;;;7.80;;
44102;SDS011;29769;42.178;24.742;2022-11-23T13:07:54;17.98;;;9.30;;
44102;SDS011;29769;42.178;24.742;2022-11-23T13:11:08;25.90;;;10.20;;
44102;SDS011;29769;42.178;24.742;2022-11-23T13:20:40;34.80;;;13.10;;
44102;SDS011;29769;42.178;24.742;2022-11-23T13:23:47;89.18;;;15.20;;
44102;SDS011;29769;42.178;24.742;2022-11-23T13:26:32;84.85;;;14.85;;
44102;SDS011;29769;42.178;24.742;2022-11-23T13:40:58;112.65;;;15.05;;
44102;SDS011;29769;42.178;24.742;2022-11-23T13:43:44;13.35;;;7.22;;
44102;SDS011;29769;42.178;24.742;2022-11-23T13:46:30;14.02;;;8.00;;
44102;SDS011;29769;42.178;24.742;2022-11-23T13:49:31;14.63;;;7.43;;
44102;SDS011;29769;42.178;24.742;2022-11-23T13:52:26;20.27;;;9.07;;
44102;SDS011;29769;42.178;24.742;2022-11-23T14:01:05;29.88;;;9.70;;
44102;SDS011;29769;42.178;24.742;2022-11-23T14:03:52;23.77;;;9.18;;
44102;SDS011;29769;42.178;24.742;2022-11-23T14:06:55;13.73;;;9.15;;
44102;SDS011;29769;42.178;24.742;2022-11-23T14:09:50;16.05;;;9.10;;
44102;SDS011;29769;42.178;24.742;2022-11-23T14:15:31;12.65;;;8.77;;
44102;SDS011;29769;42.178;24.742;2022-11-23T14:21:41;25.55;;;10.52;;
44102;SDS011;29769;42.178;24.742;2022-11-23T14:36:52;17.02;;;10.45;;
44102;SDS011;29769;42.178;24.742;2022-11-23T14:39:58;25.42;;;10.20;;
44102;SDS011;29769;42.178;24.742;2022-11-23T14:43:09;11.15;;;7.57;;
44102;SDS011;29769;42.178;24.742;2022-11-23T14:46:01;11.70;;;8.25;;
44102;SDS011;29769;42.178;24.742;2022-11-23T14:48:48;22.38;;;8.82;;
44102;SDS011;29769;42.178;24.742;2022-11-23T14:51:33;15.60;;;8.40;;
44102;SDS011;29769;42.178;24.742;2022-11-23T14:54:18;17.63;;;9.38;;
44102;SDS011;29769;42.178;24.742;2022-11-23T14:57:03;15.25;;;8.27;;
44102;SDS011;29769;42.178;24.742;2022-11-23T14:59:54;32.22;;;12.43;;
44102;SDS011;29769;42.178;24.742;2022-11-23T15:02:42;17.70;;;12.55;;
44102;SDS011;29769;42.178;24.742;2022-11-23T15:05:28;19.45;;;10.15;;
44102;SDS011;29769;42.178;24.742;2022-11-23T15:08:18;32.63;;;14.40;;
44102;SDS011;29769;42.178;24.742;2022-11-23T15:11:07;39.58;;;12.90;;
44102;SDS011;29769;42.178;24.742;2022-11-23T15:13:55;31.00;;;14.02;;
44102;SDS011;29769;42.178;24.742;2022-11-23T15:16:46;26.42;;;13.20;;
44102;SDS011;29769;42.178;24.742;2022-11-23T15:19:32;31.35;;;13.20;;
44102;SDS011;29769;42.178;24.742;2022-11-23T15:22:17;34.83;;;14.50;;
44102;SDS011;29769;42.178;24.742;2022-11-23T15:25:04;27.58;;;12.63;;
44102;SDS011;29769;42.178;24.742;2022-11-23T15:27:53;34.05;;;16.10;;
44102;SDS011;29769;42.178;24.742;2022-11-23T15:30:39;48.22;;;23.30;;
44102;SDS011;29769;42.178;24.742;2022-11-23T15:33:24;39.67;;;17.92;;
44102;SDS011;29769;42.178;24.742;2022-11-23T15:36:09;50.78;;;19.25;;
44102;SDS011;29769;42.178;24.742;2022-11-23T15:38:54;50.78;;;18.02;;
44102;SDS011;29769;42.178;24.742;2022-11-23T15:41:41;51.00;;;18.33;;
44102;SDS011;29769;42.178;24.742;2022-11-23T15:44:30;55.17;;;19.20;;
44102;SDS011;29769;42.178;24.742;2022-11-23T15:47:23;49.00;;;18.73;;
44102;SDS011;29769;42.178;24.742;2022-11-23T15:50:12;43.35;;;17.70;;
44102;SDS011;29769;42.178;24.742;2022-11-23T15:53:00;49.67;;;17.02;;
44102;SDS011;29769;42.178;24.742;2022-11-23T15:55:45;54.97;;;18.88;;
44102;SDS011;29769;42.178;24.742;2022-11-23T15:58:31;86.47;;;20.13;;
44102;SDS011;29769;42.178;24.742;2022-11-23T16:01:17;40.63;;;17.20;;
44102;SDS011;29769;42.178;24.742;2022-11-23T16:04:02;53.33;;;17.70;;
44102;SDS011;29769;42.178;24.742;2022-11-23T16:06:48;65.38;;;18.65;;
44102;SDS011;29769;42.178;24.742;2022-11-23T16:18:19;71.00;;;20.40;;
44102;SDS011;29769;42.178;24.742;2022-11-23T16:21:11;60.72;;;21.40;;
44102;SDS011;29769;42.178;24.742;2022-11-23T16:23:59;39.33;;;17.65;;
44102;SDS011;29769;42.178;24.742;2022-11-23T16:26:44;54.35;;;19.02;;
44102;SDS011;29769;42.178;24.742;2022-11-23T16:29:33;44.50;;;17.25;;
44102;SDS011;29769;42.178;24.742;2022-11-23T16:32:21;29.75;;;15.77;;
44102;SDS011;29769;42.178;24.742;2022-11-23T16:35:14;29.80;;;15.98;;
44102;SDS011;29769;42.178;24.742;2022-11-23T16:38:01;76.65;;;19.52;;
44102;SDS011;29769;42.178;24.742;2022-11-23T16:40:46;79.78;;;22.67;;
44102;SDS011;29769;42.178;24.742;2022-11-23T16:43:32;60.97;;;19.42;;
44102;SDS011;29769;42.178;24.742;2022-11-23T16:46:16;49.75;;;20.70;;
44102;SDS011;29769;42.178;24.742;2022-11-23T16:49:01;38.63;;;17.02;;
44102;SDS011;29769;42.178;24.742;2022-11-23T16:54:34;61.17;;;20.30;;
44102;SDS011;29769;42.178;24.742;2022-11-23T17:00:15;34.15;;;18.27;;
44102;SDS011;29769;42.178;24.742;2022-11-23T17:03:01;37.05;;;17.92;;
44102;SDS011;29769;42.178;24.742;2022-11-23T17:08:31;32.00;;;18.30;;
44102;SDS011;29769;42.178;24.742;2022-11-23T17:14:03;38.65;;;19.63;;
44102;SDS011;29769;42.178;24.742;2022-11-23T17:16:48;35.60;;;20.35;;
44102;SDS011;29769;42.178;24.742;2022-11-23T17:19:33;38.45;;;22.33;;
44102;SDS011;29769;42.178;24.742;2022-11-23T17:22:18;50.45;;;24.88;;
44102;SDS011;29769;42.178;24.742;2022-11-23T17:25:04;41.85;;;23.95;;
44102;SDS011;29769;42.178;24.742;2022-11-23T17:27:50;53.17;;;26.40;;
44102;SDS011;29769;42.178;24.742;2022-11-23T17:30:35;52.53;;;29.90;;
44102;SDS011;29769;42.178;24.742;2022-11-23T17:33:19;58.70;;;30.65;;
44102;SDS011;29769;42.178;24.742;2022-11-23T17:36:04;58.92;;;30.08;;
44102;SDS011;29769;42.178;24.742;2022-11-23T17:38:50;74.65;;;42.08;;
44102;SDS011;29769;42.178;24.742;2022-11-23T17:41:35;64.30;;;34.35;;
44102;SDS011;29769;42.178;24.742;2022-11-23T17:44:20;58.92;;;28.50;;
44102;SDS011;29769;42.178;24.742;2022-11-23T17:49:51;70.95;;;35.33;;
44102;SDS011;29769;42.178;24.742;2022-11-23T17:52:36;90.30;;;42.85;;
44102;SDS011;29769;42.178;24.742;2022-11-23T17:55:24;103.05;;;48.72;;
44102;SDS011;29769;42.178;24.742;2022-11-23T17:58:08;159.77;;;73.57;;
44102;SDS011;29769;42.178;24.742;2022-11-23T18:00:55;112.60;;;57.15;;
44102;SDS011;29769;42.178;24.742;2022-11-23T18:03:40;112.07;;;56.88;;
44102;SDS011;29769;42.178;24.742;2022-11-23T18:06:26;97.60;;;46.90;;
44102;SDS011;29769;42.178;24.742;2022-11-23T18:09:12;84.90;;;41.28;;
44102;SDS011;29769;42.178;24.742;2022-11-23T18:11:57;93.82;;;48.53;;
44102;SDS011;29769;42.178;24.742;2022-11-23T18:14:42;112.07;;;50.75;;
44102;SDS011;29769;42.178;24.742;2022-11-23T18:17:27;111.70;;;53.90;;
44102;SDS011;29769;42.178;24.742;2022-11-23T18:20:12;109.90;;;52.28;;
44102;SDS011;29769;42.178;24.742;2022-11-23T18:22:56;110.60;;;49.78;;
44102;SDS011;29769;42.178;24.742;2022-11-23T18:25:43;112.85;;;51.88;;
44102;SDS011;29769;42.178;24.742;2022-11-23T18:28:28;94.45;;;45.35;;
44102;SDS011;29769;42.178;24.742;2022-11-23T18:31:14;110.00;;;53.20;;
44102;SDS011;29769;42.178;24.742;2022-11-23T18:33:59;117.95;;;48.05;;
44102;SDS011;29769;42.178;24.742;2022-11-23T18:36:46;115.95;;;51.70;;
44102;SDS011;29769;42.178;24.742;2022-11-23T18:39:30;126.60;;;56.50;;
44102;SDS011;29769;42.178;24.742;2022-11-23T18:45:00;85.90;;;41.00;;
44102;SDS011;29769;42.178;24.742;2022-11-23T18:47:45;91.30;;;39.72;;
44102;SDS011;29769;42.178;24.742;2022-11-23T18:50:30;67.07;;;31.13;;
44102;SDS011;29769;42.178;24.742;2022-11-23T18:53:15;58.80;;;28.65;;
44102;SDS011;29769;42.178;24.742;2022-11-23T18:56:01;58.50;;;26.98;;
44102;SDS011;29769;42.178;24.742;2022-11-23T18:58:50;72.10;;;31.90;;
44102;SDS011;29769;42.178;24.742;2022-11-23T19:04:20;82.72;;;34.35;;
44102;SDS011;29769;42.178;24.742;2022-11-23T19:07:05;78.47;;;32.65;;
44102;SDS011;29769;42.178;24.742;2022-11-23T19:09:50;92.90;;;38.65;;
44102;SDS011;29769;42.178;24.742;2022-11-23T19:15:20;70.82;;;32.65;;
44102;SDS011;29769;42.178;24.742;2022-11-23T19:20:50;54.83;;;26.30;;
44102;SDS011;29769;42.178;24.742;2022-11-23T19:26:20;53.45;;;24.25;;
44102;SDS011;29769;42.178;24.742;2022-11-23T19:31:50;50.22;;;19.83;;
44102;SDS011;29769;42.178;24.742;2022-11-23T19:34:38;54.95;;;26.13;;
44102;SDS011;29769;42.178;24.742;2022-11-23T19:37:22;58.97;;;25.88;;
44102;SDS011;29769;42.178;24.742;2022-11-23T19:40:07;72.88;;;36.15;;
44102;SDS011;29769;42.178;24.742;2022-11-23T19:42:54;49.05;;;25.33;;
44102;SDS011;29769;42.178;24.742;2022-11-23T19:45:39;46.88;;;24.10;;